Weather at Mesa Police Heliport

Public forecast

Using degrees Fahrenheit for public forecast. Weather courtesy of forecast.io.

Closest aviation weather report (METAR) to Mesa Police Heliport

Closest report is Falcon Field, 6.1 nm (11.3 km) ENE. Retrieved 2021/06/21 09:54 UTC (1 hour ago):

KFFZ 210954Z AUTO 27005KT 10SM CLR 33/13 A2981 RMK AO2 SLP065 T03280133 TSNO

Closest aviation forecast (TAF) to Mesa Police Heliport

Closest forecast is Phoenix Sky Harbor International Airport, 8.4 nm (15.6 km) W. Retrieved 2021/06/21 06:24 UTC (5 hours ago):

TAF KPHX 210520Z 2106/2212 26012KT P6SM SKC FM211000 VRB05KT P6SM SKC FM211700 27008KT P6SM SKC FM212100 26012G20KT P6SM SKC FM220400 26010KT P6SM SKC